»·PEaware :: N707WT KBUR-KSNA

N707WT :: KBUR-KSNA

FLIGHT INFORMATION

Flight Status: Arrived
Operator: Privately registered:
United States
More flights under this callsign
Pilot: Mark B. (9455)
Aircraft: CIRRUS SR-20
(SR20)
More flights by this aircraft type
Origin: KBUR Bob Hope-Burbank
United States
Destination: KSNA John Wayne-Orange Co
United States
More flights between these airports :: More routes between these airports
Route: ELMOO8 ELMOO V186 BAYJY V363 POXKU V8 SLI
File this flight plan on PilotEdge
Remarks:
Altitude:
(Current/Filed)
5,000ft
Speed:
(Current/Filed)
145kts
Departed: 12-Sep-18 06:21 PM
Arrived: 12-Sep-18 06:52 PM
Distance/Time
Traveled:
40nm/0:30
Distance/Time
To Go:
Arrived

Flight Plot

Page will automatically refresh every two minutes.


Map Options




Map Legend


Flown Route
Filed Route
Departure Airport
Arrival Airport
Navaid (VOR, NDB)
Fix

Horizontal Profiles

Position Reports

Time Latitude Longitude Heading Altitude Ground
Speed
12-Sep-18 18:00 34.200199 -118.358745 263 723ft 0kts
12-Sep-18 18:01 34.200199 -118.358745 263 723ft 0kts
12-Sep-18 18:02 34.200199 -118.358745 263 723ft 0kts
12-Sep-18 18:03 34.200199 -118.358745 263 723ft 0kts
12-Sep-18 18:04 34.200199 -118.358745 263 723ft 0kts
12-Sep-18 18:05 34.200199 -118.358745 263 723ft 0kts
12-Sep-18 18:06 34.200199 -118.358745 263 723ft 0kts
12-Sep-18 18:07 34.200199 -118.358745 263 723ft 0kts
12-Sep-18 18:08 34.200199 -118.358745 263 723ft 0kts
12-Sep-18 18:09 34.200199 -118.358745 263 723ft 0kts
12-Sep-18 18:10 34.200199 -118.358745 263 723ft 0kts
12-Sep-18 18:11 34.201721 -118.359716 346 731ft 14kts
12-Sep-18 18:12 34.204295 -118.359401 345 740ft 14kts
12-Sep-18 18:13 34.208201 -118.360488 345 758ft 22kts
12-Sep-18 18:14 34.212008 -118.361340 35 771ft 0kts
12-Sep-18 18:15 34.212008 -118.361340 35 771ft 0kts
12-Sep-18 18:16 34.212008 -118.361340 35 771ft 0kts
12-Sep-18 18:17 34.212008 -118.361340 35 771ft 0kts
12-Sep-18 18:18 34.212008 -118.361340 35 771ft 0kts
12-Sep-18 18:19 34.212008 -118.361340 35 771ft 0kts
12-Sep-18 18:20 34.212008 -118.361340 35 771ft 0kts
12-Sep-18 18:21 34.212024 -118.361326 34 771ft 2kts
12-Sep-18 18:22 34.211453 -118.360083 174 767ft 22kts
12-Sep-18 18:23 34.195760 -118.356288 166 1210ft 93kts
12-Sep-18 18:24 34.176846 -118.334509 123 2366ft 97kts
12-Sep-18 18:25 34.165900 -118.304157 110 3445ft 103kts
12-Sep-18 18:26 34.155631 -118.279270 111 4338ft 101kts
12-Sep-18 18:27 34.147608 -118.251285 110 4925ft 121kts
12-Sep-18 18:28 34.138465 -118.222910 109 4992ft 142kts
12-Sep-18 18:29 34.127494 -118.188319 108 5008ft 150kts
12-Sep-18 18:30 34.116381 -118.139879 106 4987ft 153kts
12-Sep-18 18:31 34.107822 -118.107194 110 4978ft 153kts
12-Sep-18 18:32 34.096803 -118.073569 108 5125ft 146kts
12-Sep-18 18:33 34.088482 -118.042861 108 4987ft 155kts
12-Sep-18 18:34 34.081084 -118.014366 107 5041ft 157kts
12-Sep-18 18:35 34.072910 -117.983604 108 4948ft 158kts
12-Sep-18 18:36 34.062415 -117.954467 116 4995ft 153kts
12-Sep-18 18:37 34.050593 -117.925616 114 5011ft 151kts
12-Sep-18 18:38 34.039706 -117.898289 122 4982ft 152kts
12-Sep-18 18:39 34.023630 -117.878798 138 4749ft 164kts
12-Sep-18 18:40 34.006355 -117.856796 131 4386ft 170kts
12-Sep-18 18:41 33.990229 -117.835587 132 4079ft 170kts
12-Sep-18 18:42 33.973105 -117.813388 133 4005ft 159kts
12-Sep-18 18:43 33.958074 -117.793546 131 3996ft 153kts
12-Sep-18 18:44 33.944397 -117.773659 127 4069ft 147kts
12-Sep-18 18:45 33.923649 -117.739405 132 3828ft 147kts
12-Sep-18 18:46 33.890457 -117.728404 198 3977ft 131kts
12-Sep-18 18:47 33.856558 -117.748974 220 3653ft 140kts
12-Sep-18 18:48 33.824651 -117.775291 204 3239ft 140kts
12-Sep-18 18:49 33.790510 -117.795668 206 2625ft 126kts
12-Sep-18 18:50 33.759356 -117.815507 206 1842ft 126kts
12-Sep-18 18:51 33.729297 -117.835164 209 1248ft 102kts
12-Sep-18 18:52 33.706114 -117.848994 207 800ft 81kts
12-Sep-18 18:53 33.687130 -117.861637 207 207ft 74kts
12-Sep-18 18:54 33.674453 -117.869712 220 49ft 20kts

Navigation Log

Ident Type
Flight plan parsing failed, navigation log unavailable